Wetterdaten: Woche 01.01.18 - 07.01.18 (KW1)
Datum Zeit Temperatur Luftfeuchte Luftdruck Niederschlag Windrichtung Sonnenschein Solar Wind
01.01.2018 00:00 4,1 C 91 % 1007,0 hPa 0,0 l/m SW 0,00 h 0 W/m 12,0 km/h (2 Bft)
01.01.2018 01:00 3,7 C 89 % 1006,8 hPa 0,0 l/m SW 0,00 h 0 W/m 9,3 km/h (2 Bft)
01.01.2018 02:00 4,4 C 92 % 1007,3 hPa 0,0 l/m SW 0,00 h 0 W/m 13,0 km/h (3 Bft)
01.01.2018 03:00 6,8 C 89 % 1008,4 hPa 0,0 l/m W 0,00 h 0 W/m 19,6 km/h (3 Bft)
01.01.2018 04:00 6,3 C 88 % 1009,6 hPa 0,8 l/m W-SW 0,00 h 0 W/m 24,3 km/h (4 Bft)
01.01.2018 05:00 5,1 C 91 % 1010,2 hPa 0,0 l/m W-SW 0,00 h 0 W/m 28,0 km/h (4 Bft)
01.01.2018 06:00 4,7 C 92 % 1010,7 hPa 0,2 l/m W-SW 0,00 h 0 W/m 28,3 km/h (4 Bft)
01.01.2018 07:00 4,5 C 91 % 1010,9 hPa 0,0 l/m SW 0,00 h 0 W/m 23,6 km/h (4 Bft)
01.01.2018 08:00 4,4 C 88 % 1011,5 hPa 0,0 l/m W-SW 0,08 h 18 W/m 23,6 km/h (4 Bft)
01.01.2018 09:00 4,6 C 87 % 1012,4 hPa 0,0 l/m W-SW 0,00 h 57 W/m 26,4 km/h (4 Bft)
01.01.2018 10:00 4,6 C 86 % 1012,3 hPa 0,0 l/m SW 0,17 h 93 W/m 28,3 km/h (4 Bft)
01.01.2018 11:00 5,1 C 83 % 1012,0 hPa 0,0 l/m W-SW 0,08 h 133 W/m 28,8 km/h (5 Bft)
01.01.2018 12:00 5,5 C 80 % 1010,8 hPa 0,0 l/m W-SW 0,33 h 178 W/m 25,3 km/h (4 Bft)
01.01.2018 13:00 6,4 C 74 % 1008,8 hPa 0,0 l/m SW 0,83 h 270 W/m 30,4 km/h (5 Bft)
01.01.2018 14:00 6,5 C 73 % 1007,0 hPa 0,0 l/m W-SW 1,00 h 188 W/m 28,7 km/h (4 Bft)
01.01.2018 15:00 6,1 C 74 % 1005,6 hPa 0,0 l/m SW 0,25 h 57 W/m 18,5 km/h (3 Bft)
01.01.2018 16:00 5,4 C 79 % 1004,4 hPa 0,0 l/m SW 0,17 h 16 W/m 7,8 km/h (2 Bft)
01.01.2018 17:00 4,3 C 81 % 1003,2 hPa 0,0 l/m SW 0,00 h 0 W/m 3,5 km/h (1 Bft)
01.01.2018 18:00 3,7 C 83 % 1002,8 hPa 0,0 l/m SW 0,00 h 0 W/m 8,7 km/h (2 Bft)
01.01.2018 19:00 4,9 C 81 % 1003,0 hPa 0,0 l/m W-SW 0,00 h 0 W/m 27,9 km/h (4 Bft)
01.01.2018 20:00 4,3 C 88 % 1003,6 hPa 0,2 l/m SW 0,00 h 0 W/m 25,1 km/h (4 Bft)
01.01.2018 21:00 3,8 C 92 % 1003,7 hPa 0,2 l/m SW 0,00 h 0 W/m 31,2 km/h (5 Bft)
01.01.2018 22:00 4,2 C 92 % 1003,9 hPa 0,4 l/m W-SW 0,00 h 0 W/m 38,2 km/h (5 Bft)
01.01.2018 23:00 4,4 C 92 % 1004,6 hPa 0,2 l/m W-SW 0,00 h 0 W/m 37,3 km/h (5 Bft)
02.01.2018 00:00 4,6 C 91 % 1006,1 hPa 0,0 l/m W-SW 0,00 h 0 W/m 33,4 km/h (5 Bft)
02.01.2018 01:00 4,5 C 88 % 1007,6 hPa 0,0 l/m W 0,00 h 0 W/m 30,3 km/h (5 Bft)
02.01.2018 02:00 4,1 C 86 % 1008,7 hPa 0,0 l/m SW 0,00 h 0 W/m 25,9 km/h (4 Bft)
02.01.2018 03:00 3,6 C 87 % 1009,5 hPa 0,0 l/m W-SW 0,00 h 0 W/m 22,4 km/h (4 Bft)
02.01.2018 04:00 3,3 C 89 % 1010,1 hPa 0,0 l/m W-SW 0,00 h 0 W/m 21,2 km/h (4 Bft)
02.01.2018 05:00 3,1 C 88 % 1010,7 hPa 0,0 l/m W-SW 0,00 h 0 W/m 22,6 km/h (4 Bft)
02.01.2018 06:00 3,0 C 89 % 1011,4 hPa 0,0 l/m W-SW 0,00 h 0 W/m 20,1 km/h (4 Bft)
02.01.2018 07:00 3,1 C 91 % 1011,9 hPa 0,0 l/m W-SW 0,00 h 0 W/m 21,0 km/h (4 Bft)
02.01.2018 08:00 2,7 C 90 % 1012,9 hPa 0,0 l/m W-SW 0,17 h 21 W/m 17,6 km/h (3 Bft)
02.01.2018 09:00 2,9 C 89 % 1014,0 hPa 0,0 l/m W-SW 0,33 h 66 W/m 19,8 km/h (4 Bft)
02.01.2018 10:00 3,3 C 88 % 1015,1 hPa 0,0 l/m W-SW 0,08 h 47 W/m 17,4 km/h (3 Bft)
02.01.2018 11:00 3,9 C 85 % 1015,6 hPa 0,0 l/m W-SW 0,00 h 89 W/m 20,1 km/h (4 Bft)
02.01.2018 12:00 4,4 C 85 % 1015,5 hPa 0,0 l/m W-SW 0,00 h 105 W/m 19,6 km/h (3 Bft)
02.01.2018 13:00 4,6 C 82 % 1015,5 hPa 0,0 l/m W 0,00 h 94 W/m 20,9 km/h (4 Bft)
02.01.2018 14:00 4,7 C 79 % 1015,7 hPa 0,0 l/m W 0,08 h 74 W/m 23,3 km/h (4 Bft)
02.01.2018 15:00 4,4 C 80 % 1016,4 hPa 0,0 l/m W 0,33 h 62 W/m 18,8 km/h (3 Bft)
02.01.2018 16:00 4,3 C 79 % 1016,7 hPa 0,0 l/m W 0,42 h 20 W/m 17,3 km/h (3 Bft)
02.01.2018 17:00 3,6 C 82 % 1016,3 hPa 0,0 l/m W-SW 0,00 h 0 W/m 12,9 km/h (3 Bft)
02.01.2018 18:00 3,2 C 85 % 1015,9 hPa 0,0 l/m SW 0,00 h 0 W/m 6,7 km/h (2 Bft)
02.01.2018 19:00 3,2 C 86 % 1015,9 hPa 0,0 l/m W-SW 0,00 h 0 W/m 13,8 km/h (3 Bft)
02.01.2018 20:00 3,6 C 84 % 1015,3 hPa 0,0 l/m W-SW 0,00 h 0 W/m 15,3 km/h (3 Bft)
02.01.2018 21:00 3,4 C 84 % 1014,7 hPa 0,0 l/m SW 0,00 h 0 W/m 16,6 km/h (3 Bft)
02.01.2018 22:00 3,8 C 79 % 1013,6 hPa 0,0 l/m W-SW 0,00 h 0 W/m 14,8 km/h (3 Bft)
02.01.2018 23:00 3,7 C 79 % 1012,6 hPa 0,0 l/m W-SW 0,00 h 0 W/m 25,9 km/h (4 Bft)
03.01.2018 00:00 3,7 C 81 % 1011,5 hPa 0,0 l/m SW 0,00 h 0 W/m 29,0 km/h (5 Bft)
03.01.2018 01:00 3,0 C 88 % 1010,4 hPa 0,0 l/m W-SW 0,00 h 0 W/m 29,8 km/h (5 Bft)
03.01.2018 02:00 3,3 C 92 % 1009,3 hPa 0,0 l/m SW 0,00 h 0 W/m 29,0 km/h (5 Bft)
03.01.2018 03:00 3,3 C 93 % 1008,2 hPa 0,0 l/m SW 0,00 h 0 W/m 20,5 km/h (4 Bft)
03.01.2018 04:00 4,1 C 95 % 1006,2 hPa 0,0 l/m SW 0,00 h 0 W/m 26,0 km/h (4 Bft)
03.01.2018 05:00 5,7 C 94 % 1003,8 hPa 0,0 l/m SW 0,00 h 0 W/m 36,3 km/h (5 Bft)
03.01.2018 06:00 7,3 C 90 % 1001,2 hPa 0,0 l/m W-SW 0,00 h 0 W/m 40,5 km/h (6 Bft)
03.01.2018 07:00 8,0 C 88 % 998,5 hPa 0,0 l/m W-SW 0,00 h 0 W/m 39,6 km/h (6 Bft)
03.01.2018 08:00 9,6 C 84 % 996,5 hPa 0,0 l/m SW 0,00 h 15 W/m 53,0 km/h (7 Bft)
03.01.2018 09:00 9,9 C 86 % 994,7 hPa 0,6 l/m W-SW 0,25 h 45 W/m 46,4 km/h (6 Bft)
03.01.2018 10:00 8,6 C 90 % 995,9 hPa 8,2 l/m W-SW 0,00 h 13 W/m 42,9 km/h (6 Bft)
03.01.2018 11:00 5,9 C 94 % 998,1 hPa 6,4 l/m W 0,00 h 12 W/m 25,9 km/h (4 Bft)
03.01.2018 12:00 5,0 C 94 % 1000,8 hPa 2,2 l/m W 0,00 h 18 W/m 40,2 km/h (6 Bft)
03.01.2018 13:00 3,9 C 93 % 1002,6 hPa 0,4 l/m W 0,25 h 142 W/m 31,5 km/h (5 Bft)
03.01.2018 14:00 4,6 C 92 % 1004,1 hPa 0,0 l/m W-SW 0,67 h 159 W/m 25,1 km/h (4 Bft)
03.01.2018 15:00 4,9 C 88 % 1005,2 hPa 0,0 l/m W 0,33 h 71 W/m 22,0 km/h (4 Bft)
03.01.2018 16:00 4,8 C 83 % 1005,9 hPa 0,0 l/m W 0,00 h 12 W/m 26,5 km/h (4 Bft)
03.01.2018 17:00 4,6 C 80 % 1006,2 hPa 0,0 l/m W-SW 0,00 h 0 W/m 23,8 km/h (4 Bft)
03.01.2018 18:00 4,4 C 82 % 1006,4 hPa 0,0 l/m W-NW 0,00 h 0 W/m 28,0 km/h (4 Bft)
03.01.2018 19:00 4,3 C 86 % 1006,7 hPa 0,0 l/m W-SW 0,00 h 0 W/m 28,0 km/h (4 Bft)
03.01.2018 20:00 4,1 C 86 % 1006,8 hPa 0,0 l/m W-SW 0,00 h 0 W/m 25,9 km/h (4 Bft)
03.01.2018 21:00 4,0 C 87 % 1006,7 hPa 0,0 l/m SW 0,00 h 0 W/m 22,9 km/h (4 Bft)
03.01.2018 22:00 3,8 C 89 % 1006,7 hPa 0,0 l/m W-SW 0,00 h 0 W/m 24,1 km/h (4 Bft)
03.01.2018 23:00 3,8 C 89 % 1006,7 hPa 0,0 l/m W-SW 0,00 h 0 W/m 28,0 km/h (4 Bft)
04.01.2018 00:00 3,8 C 90 % 1006,5 hPa 0,0 l/m SW 0,00 h 0 W/m 28,2 km/h (4 Bft)
04.01.2018 01:00 3,9 C 90 % 1006,4 hPa 0,0 l/m SW 0,00 h 0 W/m 20,4 km/h (4 Bft)
04.01.2018 02:00 4,1 C 89 % 1006,3 hPa 0,0 l/m W-SW 0,00 h 0 W/m 23,6 km/h (4 Bft)
04.01.2018 03:00 4,1 C 90 % 1006,0 hPa 0,2 l/m W-SW 0,00 h 0 W/m 26,1 km/h (4 Bft)
04.01.2018 04:00 4,1 C 90 % 1005,8 hPa 0,0 l/m W-SW 0,00 h 0 W/m 24,4 km/h (4 Bft)
04.01.2018 05:00 3,7 C 91 % 1005,3 hPa 0,0 l/m W-SW 0,00 h 0 W/m 23,1 km/h (4 Bft)
04.01.2018 06:00 3,6 C 93 % 1004,9 hPa 0,0 l/m W-SW 0,00 h 0 W/m 24,0 km/h (4 Bft)
04.01.2018 07:00 3,7 C 93 % 1004,4 hPa 0,0 l/m SW 0,00 h 0 W/m 23,2 km/h (4 Bft)
04.01.2018 08:00 3,9 C 93 % 1004,3 hPa 0,0 l/m W-SW 0,00 h 11 W/m 21,7 km/h (4 Bft)
04.01.2018 09:00 4,2 C 93 % 1003,6 hPa 0,0 l/m W-SW 0,00 h 29 W/m 20,0 km/h (4 Bft)
04.01.2018 10:00 4,7 C 93 % 1003,4 hPa 0,4 l/m SW 0,00 h 36 W/m 17,2 km/h (3 Bft)
04.01.2018 11:00 4,7 C 95 % 1002,4 hPa 1,2 l/m SW 0,00 h 40 W/m 12,9 km/h (3 Bft)
04.01.2018 12:00 4,7 C 96 % 1001,1 hPa 0,4 l/m SW 0,00 h 39 W/m 16,6 km/h (3 Bft)
04.01.2018 13:00 5,6 C 98 % 1000,2 hPa 0,4 l/m SW 0,00 h 60 W/m 19,4 km/h (3 Bft)
04.01.2018 14:00 7,3 C 98 % 999,8 hPa 0,4 l/m W-SW 0,00 h 40 W/m 29,5 km/h (5 Bft)
04.01.2018 15:00 9,0 C 98 % 999,7 hPa 0,4 l/m W-SW 0,00 h 26 W/m 33,5 km/h (5 Bft)
04.01.2018 16:00 9,7 C 98 % 999,8 hPa 0,8 l/m W-SW 0,00 h 8 W/m 29,4 km/h (5 Bft)
04.01.2018 17:00 10,0 C 97 % 999,9 hPa 0,8 l/m W-SW 0,00 h 0 W/m 26,6 km/h (4 Bft)
04.01.2018 18:00 10,2 C 97 % 999,8 hPa 0,8 l/m W-SW 0,00 h 0 W/m 31,3 km/h (5 Bft)
04.01.2018 19:00 10,2 C 97 % 999,8 hPa 1,6 l/m W-SW 0,00 h 0 W/m 30,7 km/h (5 Bft)
04.01.2018 20:00 10,0 C 96 % 999,6 hPa 1,6 l/m SW 0,00 h 0 W/m 35,8 km/h (5 Bft)
04.01.2018 21:00 9,9 C 96 % 999,5 hPa 1,2 l/m W-SW 0,00 h 0 W/m 38,0 km/h (5 Bft)
04.01.2018 22:00 9,9 C 95 % 999,6 hPa 0,2 l/m W-SW 0,00 h 0 W/m 37,8 km/h (5 Bft)
04.01.2018 23:00 9,9 C 94 % 1000,2 hPa 0,2 l/m W 0,00 h 0 W/m 30,0 km/h (5 Bft)
05.01.2018 00:00 9,3 C 94 % 1001,6 hPa 1,8 l/m W-NW 0,00 h 0 W/m 26,7 km/h (4 Bft)
05.01.2018 01:00 7,7 C 93 % 1002,3 hPa 0,2 l/m W-NW 0,00 h 0 W/m 22,7 km/h (4 Bft)
05.01.2018 02:00 7,2 C 94 % 1002,9 hPa 0,0 l/m W 0,00 h 0 W/m 11,8 km/h (2 Bft)
05.01.2018 03:00 7,1 C 94 % 1003,5 hPa 0,0 l/m SW 0,00 h 0 W/m 9,0 km/h (2 Bft)
05.01.2018 04:00 7,1 C 95 % 1003,6 hPa 0,0 l/m W-SW 0,00 h 0 W/m 21,6 km/h (4 Bft)
05.01.2018 05:00 7,0 C 93 % 1003,2 hPa 0,0 l/m SW 0,00 h 0 W/m 15,2 km/h (3 Bft)
05.01.2018 06:00 6,5 C 94 % 1002,7 hPa 0,0 l/m SW 0,00 h 0 W/m 18,5 km/h (3 Bft)
05.01.2018 07:00 6,5 C 96 % 1002,5 hPa 0,0 l/m W-SW 0,00 h 0 W/m 19,3 km/h (3 Bft)
05.01.2018 08:00 6,5 C 96 % 1002,3 hPa 0,0 l/m SW 0,08 h 16 W/m 15,8 km/h (3 Bft)
05.01.2018 09:00 6,8 C 97 % 1002,3 hPa 0,0 l/m SW 0,83 h 104 W/m 13,7 km/h (3 Bft)
05.01.2018 10:00 7,9 C 96 % 1002,2 hPa 0,0 l/m W-SW 0,67 h 168 W/m 18,1 km/h (3 Bft)
05.01.2018 11:00 9,3 C 91 % 1001,8 hPa 0,0 l/m W-SW 0,17 h 139 W/m 19,4 km/h (3 Bft)
05.01.2018 12:00 10,0 C 89 % 1000,8 hPa 0,0 l/m SW 0,33 h 181 W/m 13,2 km/h (3 Bft)
05.01.2018 13:00 10,5 C 86 % 1000,5 hPa 0,0 l/m SW 0,00 h 99 W/m 16,2 km/h (3 Bft)
05.01.2018 14:00 10,1 C 88 % 1000,1 hPa 0,0 l/m SW 0,00 h 51 W/m 13,3 km/h (3 Bft)
05.01.2018 15:00 10,0 C 88 % 1000,4 hPa 0,0 l/m SW 0,00 h 28 W/m 19,3 km/h (3 Bft)
05.01.2018 16:00 9,5 C 88 % 1000,6 hPa 0,0 l/m SW 0,00 h 10 W/m 15,0 km/h (3 Bft)
05.01.2018 17:00 8,8 C 90 % 1000,8 hPa 0,2 l/m SW 0,00 h 0 W/m 10,2 km/h (2 Bft)
05.01.2018 18:00 8,4 C 92 % 1000,9 hPa 0,2 l/m SW 0,00 h 0 W/m 7,1 km/h (2 Bft)
05.01.2018 19:00 8,8 C 95 % 1001,5 hPa 0,2 l/m W-SW 0,00 h 0 W/m 12,6 km/h (3 Bft)
05.01.2018 20:00 9,0 C 95 % 1002,4 hPa 1,4 l/m W-NW 0,00 h 0 W/m 9,3 km/h (2 Bft)
05.01.2018 21:00 8,4 C 95 % 1003,0 hPa 0,8 l/m N 0,00 h 0 W/m 0,0 km/h (0 Bft)
05.01.2018 22:00 7,9 C 95 % 1003,8 hPa 1,4 l/m NW 0,00 h 0 W/m 1,2 km/h (1 Bft)
05.01.2018 23:00 7,5 C 96 % 1004,3 hPa 0,4 l/m N 0,00 h 0 W/m 0,8 km/h (0 Bft)
06.01.2018 00:00 7,1 C 96 % 1004,4 hPa 0,0 l/m N 0,00 h 0 W/m 0,0 km/h (0 Bft)
06.01.2018 01:00 6,8 C 96 % 1004,4 hPa 0,0 l/m N 0,00 h 0 W/m 0,0 km/h (0 Bft)
06.01.2018 02:00 6,8 C 97 % 1004,6 hPa 0,2 l/m N 0,00 h 0 W/m 0,0 km/h (0 Bft)
06.01.2018 03:00 6,7 C 97 % 1004,6 hPa 0,0 l/m N 0,00 h 0 W/m 0,0 km/h (0 Bft)
06.01.2018 04:00 6,5 C 97 % 1004,5 hPa 0,0 l/m N 0,00 h 0 W/m 0,0 km/h (0 Bft)
06.01.2018 05:00 6,4 C 97 % 1004,4 hPa 0,0 l/m N 0,00 h 0 W/m 0,0 km/h (0 Bft)
06.01.2018 06:00 6,3 C 98 % 1004,3 hPa 0,0 l/m N 0,00 h 0 W/m 0,3 km/h (0 Bft)
06.01.2018 07:00 6,2 C 98 % 1004,2 hPa 0,0 l/m NO 0,00 h 0 W/m 1,9 km/h (1 Bft)
06.01.2018 08:00 5,7 C 97 % 1004,0 hPa 0,0 l/m N 0,08 h 15 W/m 0,0 km/h (0 Bft)
06.01.2018 09:00 5,4 C 98 % 1004,4 hPa 0,0 l/m NO 0,00 h 43 W/m 1,5 km/h (1 Bft)
06.01.2018 10:00 6,5 C 98 % 1005,0 hPa 0,0 l/m O-SO 0,00 h 100 W/m 2,4 km/h (1 Bft)
06.01.2018 11:00 7,7 C 94 % 1004,8 hPa 0,0 l/m O-SO 1,00 h 343 W/m 4,0 km/h (1 Bft)
06.01.2018 12:00 8,6 C 91 % 1004,3 hPa 0,0 l/m SO 0,92 h 345 W/m 4,0 km/h (1 Bft)
06.01.2018 13:00 8,8 C 89 % 1004,3 hPa 0,0 l/m S 0,83 h 214 W/m 4,3 km/h (1 Bft)
06.01.2018 14:00 8,9 C 90 % 1004,6 hPa 0,0 l/m S 0,33 h 136 W/m 1,9 km/h (1 Bft)
06.01.2018 15:00 8,7 C 90 % 1005,1 hPa 0,0 l/m N 0,67 h 92 W/m 0,3 km/h (0 Bft)
06.01.2018 16:00 8,4 C 92 % 1005,7 hPa 0,0 l/m N 0,00 h 13 W/m 0,4 km/h (0 Bft)
06.01.2018 17:00 8,0 C 92 % 1006,3 hPa 0,0 l/m N 0,00 h 0 W/m 0,4 km/h (0 Bft)
06.01.2018 18:00 7,4 C 93 % 1006,9 hPa 0,0 l/m S-SO 0,00 h 0 W/m 0,8 km/h (0 Bft)
06.01.2018 19:00 6,2 C 93 % 1007,6 hPa 0,0 l/m N 0,00 h 0 W/m 0,0 km/h (0 Bft)
06.01.2018 20:00 5,7 C 94 % 1007,9 hPa 0,0 l/m O-SO 0,00 h 0 W/m 2,7 km/h (1 Bft)
06.01.2018 21:00 5,7 C 95 % 1008,5 hPa 0,0 l/m O 0,00 h 0 W/m 1,7 km/h (1 Bft)
06.01.2018 22:00 5,0 C 95 % 1008,8 hPa 0,0 l/m N 0,00 h 0 W/m 0,3 km/h (0 Bft)
06.01.2018 23:00 4,3 C 95 % 1009,3 hPa 0,0 l/m O 0,00 h 0 W/m 1,5 km/h (1 Bft)
07.01.2018 00:00 4,0 C 96 % 1009,7 hPa 0,0 l/m N 0,00 h 0 W/m 0,0 km/h (0 Bft)
07.01.2018 01:00 3,8 C 97 % 1010,2 hPa 0,0 l/m N 0,00 h 0 W/m 0,7 km/h (0 Bft)
07.01.2018 02:00 3,4 C 97 % 1010,7 hPa 0,0 l/m O 0,00 h 0 W/m 1,3 km/h (1 Bft)
07.01.2018 03:00 3,3 C 97 % 1011,1 hPa 0,0 l/m O 0,00 h 0 W/m 2,9 km/h (1 Bft)
07.01.2018 04:00 3,3 C 97 % 1011,5 hPa 0,0 l/m O-NO 0,00 h 0 W/m 3,5 km/h (1 Bft)
07.01.2018 05:00 3,1 C 98 % 1011,7 hPa 0,0 l/m O-NO 0,00 h 0 W/m 5,9 km/h (2 Bft)
07.01.2018 06:00 2,9 C 98 % 1012,3 hPa 0,0 l/m NO 0,00 h 0 W/m 4,8 km/h (1 Bft)
07.01.2018 07:00 2,9 C 98 % 1012,7 hPa 0,0 l/m NO 0,00 h 0 W/m 7,5 km/h (2 Bft)
07.01.2018 08:00 2,7 C 98 % 1013,6 hPa 0,0 l/m NO 0,00 h 11 W/m 6,4 km/h (2 Bft)
07.01.2018 09:00 2,7 C 98 % 1014,5 hPa 0,0 l/m NO 0,00 h 32 W/m 9,5 km/h (2 Bft)
07.01.2018 10:00 2,8 C 99 % 1015,1 hPa 0,0 l/m NO 0,00 h 64 W/m 10,6 km/h (2 Bft)
07.01.2018 11:00 3,1 C 99 % 1015,3 hPa 0,0 l/m NO 0,00 h 59 W/m 15,6 km/h (3 Bft)
07.01.2018 12:00 3,3 C 99 % 1015,2 hPa 0,0 l/m NO 0,00 h 49 W/m 14,4 km/h (3 Bft)
07.01.2018 13:00 3,6 C 99 % 1015,1 hPa 0,0 l/m NO 0,00 h 44 W/m 18,0 km/h (3 Bft)
07.01.2018 14:00 3,6 C 98 % 1015,3 hPa 0,0 l/m O-NO 0,00 h 32 W/m 16,9 km/h (3 Bft)
07.01.2018 15:00 3,3 C 98 % 1015,6 hPa 0,0 l/m O-NO 0,00 h 10 W/m 14,8 km/h (3 Bft)
07.01.2018 16:00 3,1 C 98 % 1016,3 hPa 0,0 l/m O 0,00 h 5 W/m 15,7 km/h (3 Bft)
07.01.2018 17:00 2,8 C 97 % 1017,0 hPa 0,0 l/m O-NO 0,00 h 0 W/m 19,3 km/h (3 Bft)
07.01.2018 18:00 2,8 C 98 % 1017,2 hPa 0,0 l/m O-NO 0,00 h 0 W/m 18,4 km/h (3 Bft)
07.01.2018 19:00 3,1 C 98 % 1017,7 hPa 0,0 l/m O-NO 0,00 h 0 W/m 15,4 km/h (3 Bft)
07.01.2018 20:00 3,1 C 98 % 1018,1 hPa 0,0 l/m O-NO 0,00 h 0 W/m 15,7 km/h (3 Bft)
07.01.2018 21:00 3,1 C 98 % 1018,4 hPa 0,0 l/m O-NO 0,00 h 0 W/m 16,5 km/h (3 Bft)
07.01.2018 22:00 3,1 C 97 % 1018,6 hPa 0,0 l/m O-NO 0,00 h 0 W/m 14,9 km/h (3 Bft)
07.01.2018 23:00 3,1 C 97 % 1018,7 hPa 0,0 l/m O-NO 0,00 h 0 W/m 12,4 km/h (3 Bft)
Min-Datum _ 02.01.18 01.01.18 03.01.18 - - - - 01.01.18
_ Min-Zeit 08:30 14:50 09:45 - - - - 17:15
Minimum _ 2,6 C 71 % 994,1 hPa - - - - 0,0 km/h (0 Bft)
Max-Datum _ 05.01.18 04.01.18 07.01.18 03.01.18 - 01.01.18 06.01.18 03.01.18
_ Max-Zeit 13:00 14:35 23:25 10:35 - 08:25 12:55 08:05
Maximum _ 10,8 C 99 % 1018,8 hPa 8,2 l/m - 0,08 h 485 W/m 66,0 km/h
SW (8 Bft)
Durchschnitt _ 5,5 C 91 % 1007,1 hPa #37,2 l/m W-SW #11:45 h 76 W/m 17,9 km/h (3 Bft)